sensor_id;sensor_type;location;lat;lon;timestamp;P1;durP1;ratioP1;P2;durP2;ratioP2
16352;SDS011;8286;51.274;9.542;2023-02-13T00:00:10;3.67;;;2.40;;
16352;SDS011;8286;51.274;9.542;2023-02-13T00:02:40;3.33;;;2.50;;
16352;SDS011;8286;51.274;9.542;2023-02-13T00:05:07;4.13;;;3.10;;
16352;SDS011;8286;51.274;9.542;2023-02-13T00:07:33;4.10;;;2.90;;
16352;SDS011;8286;51.274;9.542;2023-02-13T00:10:00;4.30;;;2.90;;
16352;SDS011;8286;51.274;9.542;2023-02-13T00:12:27;3.97;;;2.83;;
16352;SDS011;8286;51.274;9.542;2023-02-13T00:14:53;4.60;;;2.83;;
16352;SDS011;8286;51.274;9.542;2023-02-13T00:17:20;3.53;;;2.40;;
16352;SDS011;8286;51.274;9.542;2023-02-13T00:19:47;3.03;;;2.50;;
16352;SDS011;8286;51.274;9.542;2023-02-13T00:22:14;3.73;;;2.30;;
16352;SDS011;8286;51.274;9.542;2023-02-13T00:24:41;3.20;;;2.70;;
16352;SDS011;8286;51.274;9.542;2023-02-13T00:27:08;3.03;;;2.70;;
16352;SDS011;8286;51.274;9.542;2023-02-13T00:29:34;3.43;;;2.77;;
16352;SDS011;8286;51.274;9.542;2023-02-13T00:32:01;3.47;;;2.60;;
16352;SDS011;8286;51.274;9.542;2023-02-13T00:34:27;4.20;;;2.67;;
16352;SDS011;8286;51.274;9.542;2023-02-13T00:36:55;3.03;;;2.40;;
16352;SDS011;8286;51.274;9.542;2023-02-13T00:39:22;4.23;;;2.50;;
16352;SDS011;8286;51.274;9.542;2023-02-13T00:41:48;3.30;;;2.67;;
16352;SDS011;8286;51.274;9.542;2023-02-13T00:44:15;2.90;;;2.47;;
16352;SDS011;8286;51.274;9.542;2023-02-13T00:46:41;4.77;;;2.60;;
16352;SDS011;8286;51.274;9.542;2023-02-13T00:49:08;4.70;;;2.57;;
16352;SDS011;8286;51.274;9.542;2023-02-13T00:51:35;2.57;;;2.37;;
16352;SDS011;8286;51.274;9.542;2023-02-13T00:54:02;2.60;;;2.40;;
16352;SDS011;8286;51.274;9.542;2023-02-13T00:56:29;8.57;;;3.10;;
16352;SDS011;8286;51.274;9.542;2023-02-13T00:58:56;2.60;;;2.23;;
16352;SDS011;8286;51.274;9.542;2023-02-13T01:01:22;2.50;;;2.30;;
16352;SDS011;8286;51.274;9.542;2023-02-13T01:03:49;5.13;;;2.90;;
16352;SDS011;8286;51.274;9.542;2023-02-13T01:06:15;4.13;;;2.63;;
16352;SDS011;8286;51.274;9.542;2023-02-13T01:08:42;2.80;;;2.50;;
16352;SDS011;8286;51.274;9.542;2023-02-13T01:11:09;2.97;;;2.40;;
16352;SDS011;8286;51.274;9.542;2023-02-13T01:13:36;3.13;;;2.30;;
16352;SDS011;8286;51.274;9.542;2023-02-13T01:16:03;2.73;;;2.23;;
16352;SDS011;8286;51.274;9.542;2023-02-13T01:18:30;2.47;;;2.27;;
16352;SDS011;8286;51.274;9.542;2023-02-13T01:20:57;2.27;;;2.03;;
16352;SDS011;8286;51.274;9.542;2023-02-13T01:23:24;3.37;;;2.40;;
16352;SDS011;8286;51.274;9.542;2023-02-13T01:25:51;3.27;;;2.30;;
16352;SDS011;8286;51.274;9.542;2023-02-13T01:28:19;4.13;;;2.03;;
16352;SDS011;8286;51.274;9.542;2023-02-13T01:30:51;3.37;;;2.40;;
16352;SDS011;8286;51.274;9.542;2023-02-13T01:33:18;3.47;;;2.30;;
16352;SDS011;8286;51.274;9.542;2023-02-13T01:35:44;3.10;;;2.10;;
16352;SDS011;8286;51.274;9.542;2023-02-13T01:38:11;2.37;;;2.17;;
16352;SDS011;8286;51.274;9.542;2023-02-13T01:40:45;3.37;;;2.30;;
16352;SDS011;8286;51.274;9.542;2023-02-13T01:43:12;3.50;;;2.60;;
16352;SDS011;8286;51.274;9.542;2023-02-13T01:45:40;1.83;;;1.60;;
16352;SDS011;8286;51.274;9.542;2023-02-13T01:48:07;2.17;;;1.97;;
16352;SDS011;8286;51.274;9.542;2023-02-13T01:50:38;2.83;;;2.00;;
16352;SDS011;8286;51.274;9.542;2023-02-13T01:53:07;2.17;;;1.70;;
16352;SDS011;8286;51.274;9.542;2023-02-13T02:01:35;2.57;;;1.70;;
16352;SDS011;8286;51.274;9.542;2023-02-13T02:04:04;2.47;;;2.20;;
16352;SDS011;8286;51.274;9.542;2023-02-13T02:06:34;2.10;;;1.73;;
16352;SDS011;8286;51.274;9.542;2023-02-13T02:09:03;2.10;;;1.73;;
16352;SDS011;8286;51.274;9.542;2023-02-13T02:11:33;1.77;;;1.50;;
16352;SDS011;8286;51.274;9.542;2023-02-13T02:14:02;3.83;;;1.70;;
16352;SDS011;8286;51.274;9.542;2023-02-13T02:16:28;2.53;;;1.83;;
16352;SDS011;8286;51.274;9.542;2023-02-13T02:18:58;2.57;;;1.70;;
16352;SDS011;8286;51.274;9.542;2023-02-13T02:21:43;2.83;;;1.80;;
16352;SDS011;8286;51.274;9.542;2023-02-13T02:24:37;3.07;;;2.13;;
16352;SDS011;8286;51.274;9.542;2023-02-13T02:30:48;2.57;;;2.37;;
16352;SDS011;8286;51.274;9.542;2023-02-13T02:33:26;2.73;;;2.20;;
16352;SDS011;8286;51.274;9.542;2023-02-13T02:35:58;2.40;;;2.00;;
16352;SDS011;8286;51.274;9.542;2023-02-13T02:38:37;2.57;;;2.10;;
16352;SDS011;8286;51.274;9.542;2023-02-13T02:41:08;5.27;;;2.60;;
16352;SDS011;8286;51.274;9.542;2023-02-13T02:44:02;5.60;;;3.20;;
16352;SDS011;8286;51.274;9.542;2023-02-13T02:46:35;4.87;;;2.87;;
16352;SDS011;8286;51.274;9.542;2023-02-13T02:49:04;3.37;;;3.00;;
16352;SDS011;8286;51.274;9.542;2023-02-13T02:51:52;3.87;;;2.83;;
16352;SDS011;8286;51.274;9.542;2023-02-13T02:54:21;4.27;;;3.30;;
16352;SDS011;8286;51.274;9.542;2023-02-13T02:57:08;5.27;;;3.33;;
16352;SDS011;8286;51.274;9.542;2023-02-13T02:59:37;5.20;;;3.43;;
16352;SDS011;8286;51.274;9.542;2023-02-13T03:02:23;6.17;;;4.53;;
16352;SDS011;8286;51.274;9.542;2023-02-13T03:05:18;5.33;;;3.80;;
16352;SDS011;8286;51.274;9.542;2023-02-13T03:08:04;5.53;;;3.70;;
16352;SDS011;8286;51.274;9.542;2023-02-13T03:10:32;7.30;;;4.27;;
16352;SDS011;8286;51.274;9.542;2023-02-13T03:13:27;7.87;;;4.60;;
16352;SDS011;8286;51.274;9.542;2023-02-13T03:15:59;4.87;;;3.67;;
16352;SDS011;8286;51.274;9.542;2023-02-13T03:18:43;8.50;;;5.00;;
16352;SDS011;8286;51.274;9.542;2023-02-13T03:21:37;5.37;;;3.43;;
16352;SDS011;8286;51.274;9.542;2023-02-13T03:24:30;4.20;;;2.90;;
16352;SDS011;8286;51.274;9.542;2023-02-13T03:27:03;4.50;;;3.37;;
16352;SDS011;8286;51.274;9.542;2023-02-13T03:29:37;5.70;;;3.87;;
16352;SDS011;8286;51.274;9.542;2023-02-13T03:32:28;6.17;;;3.47;;
16352;SDS011;8286;51.274;9.542;2023-02-13T03:35:00;6.17;;;3.40;;
16352;SDS011;8286;51.274;9.542;2023-02-13T03:37:52;4.97;;;2.60;;
16352;SDS011;8286;51.274;9.542;2023-02-13T03:40:21;3.13;;;2.33;;
16352;SDS011;8286;51.274;9.542;2023-02-13T03:42:51;2.90;;;2.57;;
16352;SDS011;8286;51.274;9.542;2023-02-13T03:45:20;4.80;;;3.43;;
16352;SDS011;8286;51.274;9.542;2023-02-13T03:48:05;5.37;;;3.33;;
16352;SDS011;8286;51.274;9.542;2023-02-13T03:50:54;3.80;;;2.93;;
16352;SDS011;8286;51.274;9.542;2023-02-13T03:53:22;3.60;;;2.97;;
16352;SDS011;8286;51.274;9.542;2023-02-13T03:55:49;4.20;;;3.47;;
16352;SDS011;8286;51.274;9.542;2023-02-13T03:58:34;4.00;;;2.80;;
16352;SDS011;8286;51.274;9.542;2023-02-13T04:01:22;3.07;;;2.60;;
16352;SDS011;8286;51.274;9.542;2023-02-13T04:03:55;4.27;;;2.90;;
16352;SDS011;8286;51.274;9.542;2023-02-13T04:06:24;8.03;;;3.43;;
16352;SDS011;8286;51.274;9.542;2023-02-13T04:08:56;6.53;;;3.80;;
16352;SDS011;8286;51.274;9.542;2023-02-13T04:11:23;4.17;;;3.03;;
16352;SDS011;8286;51.274;9.542;2023-02-13T04:13:54;5.37;;;2.93;;
16352;SDS011;8286;51.274;9.542;2023-02-13T04:16:23;3.20;;;2.50;;
16352;SDS011;8286;51.274;9.542;2023-02-13T04:18:53;5.03;;;3.10;;
16352;SDS011;8286;51.274;9.542;2023-02-13T04:21:21;4.40;;;2.73;;
16352;SDS011;8286;51.274;9.542;2023-02-13T04:23:48;3.70;;;2.70;;
16352;SDS011;8286;51.274;9.542;2023-02-13T04:26:16;3.07;;;2.40;;
16352;SDS011;8286;51.274;9.542;2023-02-13T04:28:43;4.33;;;2.57;;
16352;SDS011;8286;51.274;9.542;2023-02-13T04:31:10;4.40;;;2.63;;
16352;SDS011;8286;51.274;9.542;2023-02-13T04:33:37;4.10;;;2.70;;
16352;SDS011;8286;51.274;9.542;2023-02-13T04:36:03;5.57;;;2.93;;
16352;SDS011;8286;51.274;9.542;2023-02-13T04:38:30;4.83;;;2.87;;
16352;SDS011;8286;51.274;9.542;2023-02-13T04:40:57;4.77;;;3.00;;
16352;SDS011;8286;51.274;9.542;2023-02-13T04:43:24;3.30;;;2.50;;
16352;SDS011;8286;51.274;9.542;2023-02-13T04:45:51;4.53;;;2.57;;
16352;SDS011;8286;51.274;9.542;2023-02-13T04:48:17;5.07;;;3.20;;
16352;SDS011;8286;51.274;9.542;2023-02-13T04:50:44;3.17;;;2.40;;
16352;SDS011;8286;51.274;9.542;2023-02-13T04:53:11;1.70;;;1.60;;
16352;SDS011;8286;51.274;9.542;2023-02-13T04:55:38;2.07;;;1.87;;
16352;SDS011;8286;51.274;9.542;2023-02-13T04:58:04;2.93;;;1.87;;
16352;SDS011;8286;51.274;9.542;2023-02-13T05:00:32;2.20;;;1.57;;
16352;SDS011;8286;51.274;9.542;2023-02-13T05:02:59;1.80;;;1.70;;
16352;SDS011;8286;51.274;9.542;2023-02-13T05:05:27;2.00;;;1.73;;
16352;SDS011;8286;51.274;9.542;2023-02-13T05:07:53;2.33;;;1.60;;
16352;SDS011;8286;51.274;9.542;2023-02-13T05:10:20;2.30;;;1.90;;
16352;SDS011;8286;51.274;9.542;2023-02-13T05:12:46;2.50;;;1.93;;
16352;SDS011;8286;51.274;9.542;2023-02-13T05:15:13;2.40;;;2.00;;
16352;SDS011;8286;51.274;9.542;2023-02-13T05:17:43;1.97;;;1.77;;
16352;SDS011;8286;51.274;9.542;2023-02-13T05:20:10;3.27;;;2.20;;
16352;SDS011;8286;51.274;9.542;2023-02-13T05:22:38;1.73;;;1.63;;
16352;SDS011;8286;51.274;9.542;2023-02-13T05:25:26;1.70;;;1.60;;
16352;SDS011;8286;51.274;9.542;2023-02-13T05:27:52;4.40;;;2.20;;
16352;SDS011;8286;51.274;9.542;2023-02-13T05:30:19;3.40;;;2.23;;
16352;SDS011;8286;51.274;9.542;2023-02-13T05:32:46;2.53;;;2.33;;
16352;SDS011;8286;51.274;9.542;2023-02-13T05:35:14;3.50;;;2.50;;
16352;SDS011;8286;51.274;9.542;2023-02-13T05:37:41;3.03;;;2.10;;
16352;SDS011;8286;51.274;9.542;2023-02-13T05:40:08;2.63;;;2.07;;
16352;SDS011;8286;51.274;9.542;2023-02-13T05:42:35;4.90;;;2.93;;
16352;SDS011;8286;51.274;9.542;2023-02-13T05:45:02;5.10;;;2.63;;
16352;SDS011;8286;51.274;9.542;2023-02-13T05:47:28;4.00;;;2.80;;
16352;SDS011;8286;51.274;9.542;2023-02-13T05:49:56;4.57;;;3.13;;
16352;SDS011;8286;51.274;9.542;2023-02-13T05:52:23;4.43;;;2.97;;
16352;SDS011;8286;51.274;9.542;2023-02-13T05:54:49;6.33;;;3.10;;
16352;SDS011;8286;51.274;9.542;2023-02-13T05:57:16;6.23;;;3.40;;
16352;SDS011;8286;51.274;9.542;2023-02-13T05:59:43;7.40;;;3.93;;
16352;SDS011;8286;51.274;9.542;2023-02-13T06:02:10;5.90;;;3.40;;
16352;SDS011;8286;51.274;9.542;2023-02-13T06:04:36;5.63;;;3.43;;
16352;SDS011;8286;51.274;9.542;2023-02-13T06:07:04;6.37;;;4.03;;
16352;SDS011;8286;51.274;9.542;2023-02-13T06:09:31;5.50;;;3.13;;
16352;SDS011;8286;51.274;9.542;2023-02-13T06:11:57;9.03;;;4.10;;
16352;SDS011;8286;51.274;9.542;2023-02-13T06:14:24;8.50;;;3.97;;
16352;SDS011;8286;51.274;9.542;2023-02-13T06:16:50;6.33;;;4.00;;
16352;SDS011;8286;51.274;9.542;2023-02-13T06:19:17;7.03;;;4.00;;
16352;SDS011;8286;51.274;9.542;2023-02-13T06:21:43;8.97;;;4.10;;
16352;SDS011;8286;51.274;9.542;2023-02-13T06:24:11;7.83;;;4.30;;
16352;SDS011;8286;51.274;9.542;2023-02-13T06:26:38;11.43;;;5.47;;
16352;SDS011;8286;51.274;9.542;2023-02-13T06:29:04;12.73;;;5.13;;
16352;SDS011;8286;51.274;9.542;2023-02-13T06:31:32;8.73;;;4.70;;
16352;SDS011;8286;51.274;9.542;2023-02-13T06:33:59;10.53;;;5.00;;
16352;SDS011;8286;51.274;9.542;2023-02-13T06:36:25;13.47;;;5.97;;
16352;SDS011;8286;51.274;9.542;2023-02-13T06:38:51;16.20;;;6.20;;
16352;SDS011;8286;51.274;9.542;2023-02-13T06:41:19;16.10;;;6.40;;
16352;SDS011;8286;51.274;9.542;2023-02-13T06:43:46;15.10;;;6.63;;
16352;SDS011;8286;51.274;9.542;2023-02-13T06:46:12;15.93;;;6.33;;
16352;SDS011;8286;51.274;9.542;2023-02-13T06:48:39;12.07;;;5.67;;
16352;SDS011;8286;51.274;9.542;2023-02-13T06:51:05;17.43;;;6.13;;
16352;SDS011;8286;51.274;9.542;2023-02-13T06:53:32;14.13;;;6.40;;
16352;SDS011;8286;51.274;9.542;2023-02-13T06:56:01;14.43;;;6.20;;
16352;SDS011;8286;51.274;9.542;2023-02-13T06:58:30;14.30;;;6.40;;
16352;SDS011;8286;51.274;9.542;2023-02-13T07:00:57;12.47;;;6.27;;
16352;SDS011;8286;51.274;9.542;2023-02-13T07:03:24;18.73;;;8.23;;
16352;SDS011;8286;51.274;9.542;2023-02-13T07:05:51;14.90;;;6.70;;
16352;SDS011;8286;51.274;9.542;2023-02-13T07:08:17;12.90;;;6.30;;
16352;SDS011;8286;51.274;9.542;2023-02-13T07:10:44;15.20;;;6.70;;
16352;SDS011;8286;51.274;9.542;2023-02-13T07:13:10;16.03;;;7.00;;
16352;SDS011;8286;51.274;9.542;2023-02-13T07:15:38;18.30;;;7.07;;
16352;SDS011;8286;51.274;9.542;2023-02-13T07:18:05;13.53;;;6.37;;
16352;SDS011;8286;51.274;9.542;2023-02-13T07:20:32;17.10;;;7.23;;
16352;SDS011;8286;51.274;9.542;2023-02-13T07:22:59;14.23;;;7.70;;
16352;SDS011;8286;51.274;9.542;2023-02-13T07:25:25;17.27;;;6.77;;
16352;SDS011;8286;51.274;9.542;2023-02-13T07:27:52;19.03;;;7.63;;
16352;SDS011;8286;51.274;9.542;2023-02-13T07:30:19;15.60;;;7.37;;
16352;SDS011;8286;51.274;9.542;2023-02-13T07:32:47;14.50;;;6.73;;
16352;SDS011;8286;51.274;9.542;2023-02-13T07:35:15;14.47;;;6.37;;
16352;SDS011;8286;51.274;9.542;2023-02-13T07:37:41;18.67;;;7.70;;
16352;SDS011;8286;51.274;9.542;2023-02-13T07:40:08;16.27;;;7.20;;
16352;SDS011;8286;51.274;9.542;2023-02-13T07:42:35;17.73;;;7.60;;
16352;SDS011;8286;51.274;9.542;2023-02-13T07:45:02;15.20;;;7.57;;
16352;SDS011;8286;51.274;9.542;2023-02-13T07:47:32;18.97;;;8.13;;
16352;SDS011;8286;51.274;9.542;2023-02-13T07:50:00;15.90;;;7.03;;
16352;SDS011;8286;51.274;9.542;2023-02-13T07:52:26;17.30;;;7.37;;
16352;SDS011;8286;51.274;9.542;2023-02-13T07:54:53;15.53;;;7.07;;
16352;SDS011;8286;51.274;9.542;2023-02-13T07:57:19;11.93;;;6.40;;
16352;SDS011;8286;51.274;9.542;2023-02-13T07:59:46;16.80;;;7.10;;
16352;SDS011;8286;51.274;9.542;2023-02-13T08:02:13;14.97;;;7.00;;
16352;SDS011;8286;51.274;9.542;2023-02-13T08:04:40;13.67;;;6.70;;
16352;SDS011;8286;51.274;9.542;2023-02-13T08:07:11;14.47;;;6.93;;
16352;SDS011;8286;51.274;9.542;2023-02-13T08:09:38;13.53;;;6.47;;
16352;SDS011;8286;51.274;9.542;2023-02-13T08:12:22;14.03;;;6.60;;
16352;SDS011;8286;51.274;9.542;2023-02-13T08:14:48;16.00;;;7.20;;
16352;SDS011;8286;51.274;9.542;2023-02-13T08:17:15;12.33;;;5.73;;
16352;SDS011;8286;51.274;9.542;2023-02-13T08:19:41;15.17;;;6.23;;
16352;SDS011;8286;51.274;9.542;2023-02-13T08:22:08;14.43;;;6.73;;
16352;SDS011;8286;51.274;9.542;2023-02-13T08:24:36;14.27;;;7.10;;
16352;SDS011;8286;51.274;9.542;2023-02-13T08:27:02;12.83;;;7.00;;
16352;SDS011;8286;51.274;9.542;2023-02-13T08:29:29;14.53;;;6.87;;
16352;SDS011;8286;51.274;9.542;2023-02-13T08:31:55;14.83;;;6.67;;
16352;SDS011;8286;51.274;9.542;2023-02-13T08:34:22;12.07;;;6.20;;
16352;SDS011;8286;51.274;9.542;2023-02-13T08:36:49;11.57;;;6.13;;
16352;SDS011;8286;51.274;9.542;2023-02-13T08:39:15;11.60;;;6.53;;
16352;SDS011;8286;51.274;9.542;2023-02-13T08:41:43;15.00;;;7.80;;
16352;SDS011;8286;51.274;9.542;2023-02-13T08:44:09;8.60;;;5.57;;
16352;SDS011;8286;51.274;9.542;2023-02-13T08:46:36;13.57;;;7.03;;
16352;SDS011;8286;51.274;9.542;2023-02-13T08:49:02;11.30;;;7.03;;
16352;SDS011;8286;51.274;9.542;2023-02-13T08:51:29;14.60;;;6.50;;
16352;SDS011;8286;51.274;9.542;2023-02-13T08:53:56;12.37;;;6.13;;
16352;SDS011;8286;51.274;9.542;2023-02-13T08:56:23;10.73;;;6.73;;
16352;SDS011;8286;51.274;9.542;2023-02-13T08:58:51;13.70;;;6.77;;
16352;SDS011;8286;51.274;9.542;2023-02-13T09:01:18;12.47;;;6.77;;
16352;SDS011;8286;51.274;9.542;2023-02-13T09:03:44;12.13;;;6.07;;
16352;SDS011;8286;51.274;9.542;2023-02-13T09:06:11;12.00;;;6.83;;
16352;SDS011;8286;51.274;9.542;2023-02-13T09:08:37;10.30;;;6.27;;
16352;SDS011;8286;51.274;9.542;2023-02-13T09:11:04;11.80;;;6.50;;
16352;SDS011;8286;51.274;9.542;2023-02-13T09:13:31;10.37;;;5.97;;
16352;SDS011;8286;51.274;9.542;2023-02-13T09:16:01;11.20;;;6.17;;
16352;SDS011;8286;51.274;9.542;2023-02-13T09:18:28;11.73;;;5.80;;
16352;SDS011;8286;51.274;9.542;2023-02-13T09:20:58;10.20;;;6.33;;
16352;SDS011;8286;51.274;9.542;2023-02-13T09:23:26;12.03;;;6.27;;
16352;SDS011;8286;51.274;9.542;2023-02-13T09:25:57;10.57;;;6.37;;
16352;SDS011;8286;51.274;9.542;2023-02-13T09:28:24;9.10;;;5.20;;
16352;SDS011;8286;51.274;9.542;2023-02-13T09:30:50;11.17;;;6.57;;
16352;SDS011;8286;51.274;9.542;2023-02-13T09:33:18;9.43;;;5.60;;
16352;SDS011;8286;51.274;9.542;2023-02-13T09:35:45;13.43;;;5.93;;
16352;SDS011;8286;51.274;9.542;2023-02-13T09:38:11;7.53;;;5.13;;
16352;SDS011;8286;51.274;9.542;2023-02-13T09:40:39;9.67;;;5.83;;
16352;SDS011;8286;51.274;9.542;2023-02-13T09:43:11;9.30;;;6.37;;
16352;SDS011;8286;51.274;9.542;2023-02-13T09:45:39;8.07;;;5.60;;
16352;SDS011;8286;51.274;9.542;2023-02-13T09:48:07;7.30;;;5.00;;
16352;SDS011;8286;51.274;9.542;2023-02-13T09:50:42;9.33;;;5.60;;
16352;SDS011;8286;51.274;9.542;2023-02-13T09:53:09;10.33;;;5.33;;
16352;SDS011;8286;51.274;9.542;2023-02-13T09:55:44;6.83;;;4.33;;
16352;SDS011;8286;51.274;9.542;2023-02-13T09:58:18;7.60;;;5.07;;
16352;SDS011;8286;51.274;9.542;2023-02-13T10:00:50;8.33;;;5.10;;
16352;SDS011;8286;51.274;9.542;2023-02-13T10:03:20;7.17;;;4.73;;
16352;SDS011;8286;51.274;9.542;2023-02-13T10:05:55;9.63;;;5.43;;
16352;SDS011;8286;51.274;9.542;2023-02-13T10:08:33;9.40;;;5.57;;
16352;SDS011;8286;51.274;9.542;2023-02-13T10:11:11;6.27;;;4.70;;
16352;SDS011;8286;51.274;9.542;2023-02-13T10:13:47;5.77;;;5.03;;
16352;SDS011;8286;51.274;9.542;2023-02-13T10:16:22;7.50;;;5.20;;
16352;SDS011;8286;51.274;9.542;2023-02-13T10:18:53;7.27;;;4.87;;
16352;SDS011;8286;51.274;9.542;2023-02-13T10:21:23;9.53;;;5.60;;
16352;SDS011;8286;51.274;9.542;2023-02-13T10:23:54;8.40;;;5.53;;
16352;SDS011;8286;51.274;9.542;2023-02-13T10:26:24;7.87;;;5.10;;
16352;SDS011;8286;51.274;9.542;2023-02-13T10:29:07;9.57;;;5.60;;
16352;SDS011;8286;51.274;9.542;2023-02-13T10:31:56;8.10;;;5.00;;
16352;SDS011;8286;51.274;9.542;2023-02-13T10:34:27;8.57;;;4.93;;
16352;SDS011;8286;51.274;9.542;2023-02-13T10:36:58;7.00;;;5.23;;
16352;SDS011;8286;51.274;9.542;2023-02-13T10:39:26;6.77;;;4.83;;
16352;SDS011;8286;51.274;9.542;2023-02-13T10:41:54;7.50;;;4.83;;
16352;SDS011;8286;51.274;9.542;2023-02-13T10:44:27;7.77;;;5.70;;
16352;SDS011;8286;51.274;9.542;2023-02-13T10:47:01;7.87;;;5.53;;
16352;SDS011;8286;51.274;9.542;2023-02-13T10:52:21;7.20;;;5.20;;
16352;SDS011;8286;51.274;9.542;2023-02-13T10:54:58;8.93;;;5.20;;
16352;SDS011;8286;51.274;9.542;2023-02-13T10:57:33;8.13;;;5.33;;
16352;SDS011;8286;51.274;9.542;2023-02-13T11:00:07;8.87;;;6.20;;
16352;SDS011;8286;51.274;9.542;2023-02-13T11:02:35;9.27;;;6.13;;
16352;SDS011;8286;51.274;9.542;2023-02-13T11:05:06;8.63;;;5.77;;
16352;SDS011;8286;51.274;9.542;2023-02-13T11:07:40;9.03;;;5.20;;
16352;SDS011;8286;51.274;9.542;2023-02-13T11:12:40;9.30;;;5.70;;
16352;SDS011;8286;51.274;9.542;2023-02-13T11:15:18;9.07;;;5.63;;
16352;SDS011;8286;51.274;9.542;2023-02-13T11:17:46;7.97;;;5.78;;
16352;SDS011;8286;51.274;9.542;2023-02-13T11:20:33;5.88;;;4.70;;
16352;SDS011;8286;51.274;9.542;2023-02-13T11:23:16;7.20;;;5.30;;
16352;SDS011;8286;51.274;9.542;2023-02-13T11:25:53;5.90;;;4.93;;
16352;SDS011;8286;51.274;9.542;2023-02-13T11:28:22;7.85;;;4.95;;
16352;SDS011;8286;51.274;9.542;2023-02-13T11:30:49;7.60;;;5.22;;
16352;SDS011;8286;51.274;9.542;2023-02-13T11:33:21;6.72;;;5.32;;
16352;SDS011;8286;51.274;9.542;2023-02-13T11:35:48;8.15;;;5.20;;
16352;SDS011;8286;51.274;9.542;2023-02-13T11:38:21;8.05;;;5.32;;
16352;SDS011;8286;51.274;9.542;2023-02-13T11:40:49;7.47;;;5.50;;
16352;SDS011;8286;51.274;9.542;2023-02-13T11:43:16;8.02;;;5.30;;
16352;SDS011;8286;51.274;9.542;2023-02-13T11:45:45;7.47;;;5.20;;
16352;SDS011;8286;51.274;9.542;2023-02-13T11:48:18;7.30;;;5.70;;
16352;SDS011;8286;51.274;9.542;2023-02-13T11:50:49;6.70;;;5.35;;
16352;SDS011;8286;51.274;9.542;2023-02-13T11:53:17;8.45;;;5.13;;
16352;SDS011;8286;51.274;9.542;2023-02-13T11:55:59;7.60;;;5.30;;
16352;SDS011;8286;51.274;9.542;2023-02-13T11:58:29;7.10;;;5.33;;
16352;SDS011;8286;51.274;9.542;2023-02-13T12:01:06;7.73;;;5.00;;
16352;SDS011;8286;51.274;9.542;2023-02-13T12:03:34;7.10;;;4.93;;
16352;SDS011;8286;51.274;9.542;2023-02-13T12:06:04;6.80;;;5.13;;
16352;SDS011;8286;51.274;9.542;2023-02-13T12:08:33;7.27;;;5.20;;
16352;SDS011;8286;51.274;9.542;2023-02-13T12:11:03;7.70;;;5.20;;
16352;SDS011;8286;51.274;9.542;2023-02-13T12:13:32;7.23;;;4.47;;
16352;SDS011;8286;51.274;9.542;2023-02-13T12:16:01;7.67;;;5.03;;
16352;SDS011;8286;51.274;9.542;2023-02-13T12:18:31;6.47;;;4.80;;
16352;SDS011;8286;51.274;9.542;2023-02-13T12:21:01;7.65;;;4.90;;
16352;SDS011;8286;51.274;9.542;2023-02-13T12:23:37;6.65;;;5.20;;
16352;SDS011;8286;51.274;9.542;2023-02-13T12:26:12;5.88;;;4.72;;
16352;SDS011;8286;51.274;9.542;2023-02-13T12:28:51;6.35;;;4.78;;
16352;SDS011;8286;51.274;9.542;2023-02-13T12:31:27;5.97;;;4.67;;
16352;SDS011;8286;51.274;9.542;2023-02-13T12:34:21;7.70;;;5.00;;
16352;SDS011;8286;51.274;9.542;2023-02-13T12:36:57;8.15;;;5.40;;
16352;SDS011;8286;51.274;9.542;2023-02-13T12:39:30;6.90;;;5.07;;
16352;SDS011;8286;51.274;9.542;2023-02-13T12:42:04;5.82;;;4.63;;
16352;SDS011;8286;51.274;9.542;2023-02-13T12:44:53;8.80;;;5.35;;
16352;SDS011;8286;51.274;9.542;2023-02-13T12:47:28;6.68;;;4.72;;
16352;SDS011;8286;51.274;9.542;2023-02-13T12:49:59;5.93;;;4.80;;
16352;SDS011;8286;51.274;9.542;2023-02-13T12:52:39;8.50;;;4.82;;
16352;SDS011;8286;51.274;9.542;2023-02-13T12:55:15;7.00;;;4.95;;
16352;SDS011;8286;51.274;9.542;2023-02-13T12:57:54;5.47;;;4.32;;
16352;SDS011;8286;51.274;9.542;2023-02-13T13:00:28;6.73;;;4.47;;
16352;SDS011;8286;51.274;9.542;2023-02-13T13:03:10;6.60;;;5.00;;
16352;SDS011;8286;51.274;9.542;2023-02-13T13:06:01;6.22;;;4.88;;
16352;SDS011;8286;51.274;9.542;2023-02-13T13:08:38;5.47;;;4.30;;
16352;SDS011;8286;51.274;9.542;2023-02-13T13:11:24;7.37;;;5.30;;
16352;SDS011;8286;51.274;9.542;2023-02-13T13:14:03;6.28;;;5.15;;
16352;SDS011;8286;51.274;9.542;2023-02-13T13:16:33;6.53;;;4.93;;
16352;SDS011;8286;51.274;9.542;2023-02-13T13:19:09;8.20;;;5.67;;
16352;SDS011;8286;51.274;9.542;2023-02-13T13:21:41;6.90;;;4.40;;
16352;SDS011;8286;51.274;9.542;2023-02-13T13:24:19;9.40;;;4.40;;
16352;SDS011;8286;51.274;9.542;2023-02-13T13:26:54;5.18;;;4.32;;
16352;SDS011;8286;51.274;9.542;2023-02-13T13:29:24;6.10;;;4.60;;
16352;SDS011;8286;51.274;9.542;2023-02-13T13:31:53;6.10;;;4.57;;
16352;SDS011;8286;51.274;9.542;2023-02-13T13:34:22;7.30;;;4.23;;
16352;SDS011;8286;51.274;9.542;2023-02-13T13:36:50;9.13;;;5.43;;
16352;SDS011;8286;51.274;9.542;2023-02-13T13:42:07;7.70;;;4.53;;
16352;SDS011;8286;51.274;9.542;2023-02-13T13:44:42;7.03;;;4.35;;
16352;SDS011;8286;51.274;9.542;2023-02-13T13:47:17;6.05;;;4.18;;
16352;SDS011;8286;51.274;9.542;2023-02-13T13:49:50;8.23;;;5.10;;
16352;SDS011;8286;51.274;9.542;2023-02-13T13:52:19;7.22;;;5.00;;
16352;SDS011;8286;51.274;9.542;2023-02-13T13:54:47;7.07;;;5.20;;
16352;SDS011;8286;51.274;9.542;2023-02-13T13:57:15;5.60;;;4.47;;
16352;SDS011;8286;51.274;9.542;2023-02-13T14:06:00;9.10;;;4.07;;
16352;SDS011;8286;51.274;9.542;2023-02-13T14:11:37;6.90;;;4.97;;
16352;SDS011;8286;51.274;9.542;2023-02-13T14:20:34;10.53;;;4.43;;
16352;SDS011;8286;51.274;9.542;2023-02-13T14:26:09;7.67;;;4.70;;
16352;SDS011;8286;51.274;9.542;2023-02-13T14:28:59;8.50;;;4.30;;
16352;SDS011;8286;51.274;9.542;2023-02-13T14:31:41;5.80;;;4.37;;
16352;SDS011;8286;51.274;9.542;2023-02-13T14:34:17;6.30;;;4.47;;
16352;SDS011;8286;51.274;9.542;2023-02-13T14:36:57;6.80;;;4.67;;
16352;SDS011;8286;51.274;9.542;2023-02-13T14:39:30;6.93;;;4.37;;
16352;SDS011;8286;51.274;9.542;2023-02-13T14:41:59;6.83;;;4.00;;
16352;SDS011;8286;51.274;9.542;2023-02-13T14:44:29;6.53;;;4.60;;
16352;SDS011;8286;51.274;9.542;2023-02-13T14:46:57;7.67;;;4.77;;
16352;SDS011;8286;51.274;9.542;2023-02-13T14:49:26;6.67;;;4.83;;
16352;SDS011;8286;51.274;9.542;2023-02-13T14:51:55;9.30;;;4.73;;
16352;SDS011;8286;51.274;9.542;2023-02-13T14:54:24;6.30;;;4.23;;
16352;SDS011;8286;51.274;9.542;2023-02-13T14:56:54;6.57;;;4.20;;
16352;SDS011;8286;51.274;9.542;2023-02-13T14:59:27;5.17;;;4.07;;
16352;SDS011;8286;51.274;9.542;2023-02-13T15:01:58;5.53;;;3.70;;
16352;SDS011;8286;51.274;9.542;2023-02-13T15:04:26;5.43;;;4.20;;
16352;SDS011;8286;51.274;9.542;2023-02-13T15:06:57;7.03;;;3.93;;
16352;SDS011;8286;51.274;9.542;2023-02-13T15:09:27;6.57;;;4.33;;
16352;SDS011;8286;51.274;9.542;2023-02-13T15:11:58;6.30;;;4.20;;
16352;SDS011;8286;51.274;9.542;2023-02-13T15:14:29;6.33;;;4.27;;
16352;SDS011;8286;51.274;9.542;2023-02-13T15:16:58;4.67;;;3.73;;
16352;SDS011;8286;51.274;9.542;2023-02-13T15:19:30;6.93;;;4.80;;
16352;SDS011;8286;51.274;9.542;2023-02-13T15:21:59;6.57;;;3.90;;
16352;SDS011;8286;51.274;9.542;2023-02-13T15:24:28;4.83;;;3.53;;
16352;SDS011;8286;51.274;9.542;2023-02-13T15:27:04;6.07;;;3.77;;
16352;SDS011;8286;51.274;9.542;2023-02-13T15:29:32;6.90;;;4.10;;
16352;SDS011;8286;51.274;9.542;2023-02-13T15:31:58;4.47;;;4.00;;
16352;SDS011;8286;51.274;9.542;2023-02-13T15:34:26;7.93;;;4.10;;
16352;SDS011;8286;51.274;9.542;2023-02-13T15:36:54;10.97;;;5.13;;
16352;SDS011;8286;51.274;9.542;2023-02-13T15:39:27;5.47;;;3.93;;
16352;SDS011;8286;51.274;9.542;2023-02-13T15:41:55;6.00;;;3.83;;
16352;SDS011;8286;51.274;9.542;2023-02-13T15:44:23;8.47;;;3.93;;
16352;SDS011;8286;51.274;9.542;2023-02-13T15:46:52;7.50;;;4.50;;
16352;SDS011;8286;51.274;9.542;2023-02-13T15:49:21;6.07;;;4.07;;
16352;SDS011;8286;51.274;9.542;2023-02-13T15:51:48;4.27;;;3.77;;
16352;SDS011;8286;51.274;9.542;2023-02-13T15:54:21;5.87;;;3.97;;